Pearl Of Scandinavia — OWFU2 — position and weather

sailwx.info

Track history (hours):
 
Tides and Currents Weather Stations Pressure Air Temp Water Temp Dewpoint Dewpoint Depression Visibility Wind Speed Wind Dir Waves Ship Positions

Pearl Of Scandinavia

Last reported at 2015-May-23 04:32 UTC. Time now 2015-May-23 05:46 UTC.
Position N 56°31' E 012°15'.

Length 176.4 m; beam 34 m; draft 6.215 m.

Type: Ship. MMSI: 219945000.

Date/timePositionNaut miles runAvg speedWind from/ knotsBaromVisibWave heightAir tempDewpointWater temp
2015-May-23 04:32N 56°31' E 012°15'1817.9
2015-May-23 03:34N 56°48' E 012°06'1817.8
2015-May-23 02:34N 57°05' E 011°57'1717.3
2015-May-23 01:34N 57°21' E 011°44'1817.8
2015-May-23 00:34N 57°36' E 011°26'1717.3
2015-May-22 23:34N 57°52' E 011°14'1717.1
2015-May-22 22:34N 58°08' E 011°02'1615.9
2015-May-22 21:33N 58°23' E 010°53'1615.6
2015-May-22 20:34N 58°38' E 010°43'1615.5
2015-May-22 19:33N 58°53' E 010°39'1414.3
2015-May-22 18:33N 59°07' E 010°38'1313.2
2015-May-22 17:33N 59°20' E 010°35'1313.1
2015-May-22 16:33N 59°34' E 010°37'20 2.2
2015-May-22 07:20N 59°54' E 010°41'1313.9
2015-May-22 06:25N 59°41' E 010°37'1315.0
2015-May-22 05:34N 59°28' E 010°34'1716.6
2015-May-22 04:34N 59°12' E 010°39'1616.3
2015-May-22 03:33N 58°55' E 010°43'1716.2
2015-May-22 02:30N 58°39' E 010°47'1616.4
2015-May-22 01:33N 58°24' E 010°56'1616.3
2015-May-22 00:33N 58°08' E 011°06'1616.4
2015-May-21 23:33N 57°53' E 011°15'1616.5
2015-May-21 22:34N 57°37' E 011°26'1615.8
2015-May-21 21:33N 57°22' E 011°33'1616.0
2015-May-21 20:33N 57°07' E 011°42'1615.8
2015-May-21 19:33N 56°52' E 011°50'1615.9
2015-May-21 18:33N 56°37' E 011°60'1615.9
2015-May-21 17:33N 56°22' E 012°13'1716.6
2015-May-21 16:34N 56°09' E 012°30'1716.5
2015-May-21 15:34N 55°55' E 012°45'1313.3
2015-May-21 14:33N 55°42' E 012°36'0 0.0
2015-May-21 13:29N 55°42' E 012°36'0 0.0
2015-May-21 12:32N 55°42' E 012°36'0 0.0
2015-May-21 11:32N 55°42' E 012°36'0 0.0
2015-May-21 10:32N 55°42' E 012°36'0 0.0
2015-May-21 09:33N 55°42' E 012°36'0 0.0
2015-May-21 08:32N 55°42' E 012°36'0 0.2
2015-May-21 07:33N 55°42' E 012°36'1111.4
2015-May-21 06:33N 55°53' E 012°40'1414.1
2015-May-21 05:34N 56°07' E 012°32'1514.6
2015-May-21 04:34N 56°20' E 012°22'1615.5
2015-May-21 03:33N 56°35' E 012°13'1716.7
2015-May-21 02:33N 56°51' E 012°03'1716.7
2015-May-21 01:33N 57°07' E 011°56'1616.3
2015-May-21 00:34N 57°22' E 011°42'1716.8
2015-May-20 23:34N 57°36' E 011°27'1716.7
2015-May-20 22:33N 57°52' E 011°14'1716.5
2015-May-20 21:34N 58°07' E 011°04'1616.3
2015-May-20 20:34N 58°23' E 010°55'1615.9
2015-May-20 19:34N 58°38' E 010°49'1616.4
2015-May-20 18:33N 58°55' E 010°43'1716.8
2015-May-20 17:34N 59°11' E 010°38'1716.5
2015-May-20 16:33N 59°28' E 010°33'1614.1
2015-May-20 15:27N 59°43' E 010°34'11 1.4
2015-May-20 07:23N 59°54' E 010°41'1613.7
2015-May-20 06:14N 59°38' E 010°38'1014.4
2015-May-20 05:33N 59°28' E 010°35'1616.0
2015-May-20 04:33N 59°13' E 010°38'1616.2
2015-May-20 03:33N 58°57' E 010°43'1616.0
2015-May-20 02:33N 58°41' E 010°48'1616.1
2015-May-20 01:33N 58°25' E 010°55'1616.0
2015-May-20 00:33N 58°10' E 011°05'1616.1
2015-May-19 23:33N 57°55' E 011°15'1615.7
2015-May-19 22:33N 57°40' E 011°24'1616.2
2015-May-19 21:33N 57°24' E 011°32'1616.4
2015-May-19 20:33N 57°08' E 011°41'1616.2
2015-May-19 19:33N 56°53' E 011°51'1515.3
2015-May-19 18:33N 56°38' E 011°58'1616.0
2015-May-19 17:33N 56°24' E 012°11'1616.3
2015-May-19 16:33N 56°11' E 012°28'1716.8
2015-May-19 15:33N 55°56' E 012°43'1414.0
2015-May-19 14:34N 55°43' E 012°37'1 0.8
2015-May-19 13:33N 55°42' E 012°36'0 0.0
2015-May-19 12:33N 55°42' E 012°36'0 0.0
2015-May-19 11:33N 55°42' E 012°36'0 0.0
2015-May-19 10:33N 55°42' E 012°36'0 0.0
2015-May-19 09:33N 55°42' E 012°36'0 0.0
2015-May-19 08:33N 55°42' E 012°36'0 0.2
2015-May-19 07:34N 55°42' E 012°36'10 9.8
2015-May-19 06:33N 55°52' E 012°41'1413.5
2015-May-19 05:33N 56°05' E 012°36'1515.0
2015-May-19 04:33N 56°18' E 012°23'1515.2
2015-May-19 03:33N 56°33' E 012°17'1615.6
2015-May-19 02:33N 56°48' E 012°11'1615.7
2015-May-19 01:33N 57°03' E 012°01'1616.2
2015-May-19 00:33N 57°17' E 011°48'1716.8
2015-May-18 23:33N 57°32' E 011°32'1716.7
2015-May-18 22:34N 57°47' E 011°19'1717.0
2015-May-18 21:33N 58°03' E 011°09'1616.4
2015-May-18 20:33N 58°19' E 011°00'1716.6
2015-May-18 19:33N 58°35' E 010°51'1716.8
2015-May-18 18:33N 58°51' E 010°44'1817.6
2015-May-18 17:33N 59°09' E 010°39'1818.0
2015-May-18 16:33N 59°27' E 010°33'1915.2
2015-May-18 15:18N 59°46' E 010°33'9 1.1
2015-May-18 07:22N 59°54' E 010°41'2514.0
2015-May-18 05:33N 59°28' E 010°34'1616.0
2015-May-18 04:33N 59°13' E 010°38'1616.2
2015-May-18 03:33N 58°56' E 010°43'1616.4
2015-May-18 02:33N 58°40' E 010°48'1716.6
2015-May-18 01:33N 58°24' E 010°56'1716.8
2015-May-18 00:34N 58°08' E 011°06'1717.1
2015-May-17 23:33N 57°52' E 011°16'1716.5
2015-May-17 22:33N 57°36' E 011°25'1716.6
2015-May-17 21:33N 57°20' E 011°34'1716.6
2015-May-17 20:32N 57°04' E 011°43'1616.2
2015-May-17 19:33N 56°49' E 011°55'1515.5
2015-May-17 18:33N 56°36' E 012°10'1616.1
2015-May-17 17:34N 56°22' E 012°21'1616.0
2015-May-17 16:33N 56°07' E 012°33'1514.7
2015-May-17 15:33N 55°54' E 012°45'1313.0
2015-May-17 14:33N 55°42' E 012°36'0 0.0
2015-May-17 13:31N 55°42' E 012°36'0 0.0
2015-May-17 12:31N 55°42' E 012°36'0 0.0
2015-May-17 11:31N 55°42' E 012°36'0 0.0
2015-May-17 10:31N 55°42' E 012°36'0 0.0
2015-May-17 09:25N 55°42' E 012°36'0 0.0
2015-May-17 08:31N 55°42' E 012°36'0 0.3
2015-May-17 07:33N 55°42' E 012°36'1010.4
2015-May-17 06:34N 55°52' E 012°40'1515.0
2015-May-17 05:34N 56°07' E 012°32'1615.8
2015-May-17 04:33N 56°21' E 012°21'1716.5
2015-May-17 03:33N 56°37' E 012°14'1716.7
2015-May-17 02:33N 56°54' E 012°07'1716.5
2015-May-17 01:33N 57°09' E 011°56'1616.3
2015-May-17 00:33N 57°23' E 011°41'1616.5
2015-May-16 23:33N 57°38' E 011°26'1717.0
2015-May-16 22:33N 57°53' E 011°13'1616.1
2015-May-16 21:33N 58°08' E 011°01'1616.3
2015-May-16 20:33N 58°23' E 010°47'1616.1
2015-May-16 19:33N 58°38' E 010°39'1716.1
2015-May-16 18:32N 58°55' E 010°38'1616.3
2015-May-16 17:33N 59°11' E 010°38'1616.3
2015-May-16 16:33N 59°27' E 010°33'27 2.9
2015-May-16 07:21N 59°54' E 010°41'2514.0
2015-May-16 05:33N 59°29' E 010°34'1616.4
2015-May-16 04:33N 59°13' E 010°38'1616.2
2015-May-16 03:33N 58°56' E 010°37'1616.3
2015-May-16 02:33N 58°40' E 010°33'1716.7
2015-May-16 01:33N 58°24' E 010°43'1716.7
2015-May-16 00:33N 58°08' E 010°52'1717.0
2015-May-15 23:33N 57°52' E 011°01'1716.5
2015-May-15 22:33N 57°37' E 011°13'1616.0
2015-May-15 21:33N 57°24' E 011°31'1616.3
2015-May-15 20:33N 57°09' E 011°41'1716.7
2015-May-15 19:33N 56°53' E 011°51'1616.3
2015-May-15 18:33N 56°39' E 012°07'1615.9
2015-May-15 17:33N 56°25' E 012°19'1616.0
2015-May-15 16:33N 56°10' E 012°30'1616.3
2015-May-15 15:33N 55°56' E 012°44'1413.7
2015-May-15 14:33N 55°42' E 012°37'1 0.6
2015-May-15 13:31N 55°42' E 012°36'0 0.0
2015-May-15 12:31N 55°42' E 012°36'0 0.0
2015-May-15 11:31N 55°42' E 012°36'0 0.0
2015-May-15 10:25N 55°42' E 012°36'0 0.0
2015-May-15 09:31N 55°42' E 012°36'0 0.0
2015-May-15 08:31N 55°42' E 012°36'0 0.4
2015-May-15 07:33N 55°42' E 012°36'1211.8
2015-May-15 06:33N 55°54' E 012°39'1414.0
2015-May-15 05:33N 56°07' E 012°31'1515.1
2015-May-15 04:33N 56°21' E 012°22'1615.7
2015-May-15 03:33N 56°37' E 012°16'1616.5
2015-May-15 02:33N 56°53' E 012°09'1616.0
2015-May-15 01:33N 57°07' E 011°57'1616.3
2015-May-15 00:33N 57°21' E 011°41'1615.9
2015-May-14 23:33N 57°35' E 011°28'1616.3
2015-May-14 22:33N 57°50' E 011°16'1616.5
2015-May-14 21:33N 58°06' E 011°07'1515.5
2015-May-14 20:33N 58°21' E 010°59'1615.6
2015-May-14 19:33N 58°36' E 010°51'1616.2
2015-May-14 18:33N 58°52' E 010°44'1716.9
2015-May-14 17:33N 59°08' E 010°39'1717.3
2015-May-14 16:33N 59°25' E 010°33'29 3.1
2015-May-14 07:25N 59°54' E 010°41'2613.8
2015-May-14 05:33N 59°28' E 010°35'1615.7
2015-May-14 04:33N 59°13' E 010°39'1616.3
2015-May-14 03:33N 58°57' E 010°43'1616.0
2015-May-14 02:32N 58°40' E 010°46'1616.5
2015-May-14 01:33N 58°25' E 010°55'1717.1
2015-May-14 00:33N 58°09' E 011°05'1717.2
2015-May-13 23:33N 57°52' E 011°15'1716.7
2015-May-13 22:33N 57°36' E 011°25'1716.6
2015-May-13 21:33N 57°21' E 011°34'1717.0
2015-May-13 20:33N 57°04' E 011°44'1716.6
2015-May-13 19:33N 56°49' E 011°55'1616.1
2015-May-13 18:33N 56°35' E 012°11'2416.2
2015-May-13 17:03N 56°13' E 012°28'815.4
2015-May-13 16:33N 56°06' E 012°35'1514.6
2015-May-13 15:33N 55°53' E 012°44'1211.7
2015-May-13 14:34N 55°42' E 012°36'0 0.0
2015-May-13 13:33N 55°42' E 012°36'0 0.0
2015-May-13 12:33N 55°42' E 012°36'0 0.0
2015-May-13 11:33N 55°42' E 012°36'0 0.0
2015-May-13 10:33N 55°42' E 012°36'0 0.0
2015-May-13 09:33N 55°42' E 012°36'0 0.0
2015-May-13 08:33N 55°42' E 012°36'0 0.1
2015-May-13 07:34N 55°42' E 012°36'1110.9
2015-May-13 06:33N 55°53' E 012°40'1414.4
2015-May-13 05:33N 56°07' E 012°32'1616.3
2015-May-13 04:33N 56°22' E 012°21'  
Track history (hours):
 
Tides and Currents Weather Stations Pressure Air Temp Water Temp Dewpoint Dewpoint Depression Visibility Wind Speed Wind Dir Waves Ship Positions

Pearl Of Scandinavia

Last reported at 2015-May-23 04:32 UTC. Time now 2015-May-23 05:46 UTC.
Position N 56°31' E 012°15'.

Length 176.4 m; beam 34 m; draft 6.215 m.

Type: Ship. MMSI: 219945000.

Date/timePositionNaut miles runAvg speedWind from/ knotsBaromVisibWave heightAir tempDewpointWater temp
2015-May-23 04:32N 56°31' E 012°15'1817.9
2015-May-23 03:34N 56°48' E 012°06'1817.8
2015-May-23 02:34N 57°05' E 011°57'1717.3
2015-May-23 01:34N 57°21' E 011°44'1817.8
2015-May-23 00:34N 57°36' E 011°26'1717.3
2015-May-22 23:34N 57°52' E 011°14'1717.1
2015-May-22 22:34N 58°08' E 011°02'1615.9
2015-May-22 21:33N 58°23' E 010°53'1615.6
2015-May-22 20:34N 58°38' E 010°43'1615.5
2015-May-22 19:33N 58°53' E 010°39'1414.3
2015-May-22 18:33N 59°07' E 010°38'1313.2
2015-May-22 17:33N 59°20' E 010°35'1313.1
2015-May-22 16:33N 59°34' E 010°37'20 2.2
2015-May-22 07:20N 59°54' E 010°41'1313.9
2015-May-22 06:25N 59°41' E 010°37'1315.0
2015-May-22 05:34N 59°28' E 010°34'1716.6
2015-May-22 04:34N 59°12' E 010°39'1616.3
2015-May-22 03:33N 58°55' E 010°43'1716.2
2015-May-22 02:30N 58°39' E 010°47'1616.4
2015-May-22 01:33N 58°24' E 010°56'1616.3
2015-May-22 00:33N 58°08' E 011°06'1616.4
2015-May-21 23:33N 57°53' E 011°15'1616.5
2015-May-21 22:34N 57°37' E 011°26'1615.8
2015-May-21 21:33N 57°22' E 011°33'1616.0
2015-May-21 20:33N 57°07' E 011°42'1615.8
2015-May-21 19:33N 56°52' E 011°50'1615.9
2015-May-21 18:33N 56°37' E 011°60'1615.9
2015-May-21 17:33N 56°22' E 012°13'1716.6
2015-May-21 16:34N 56°09' E 012°30'1716.5
2015-May-21 15:34N 55°55' E 012°45'1313.3
2015-May-21 14:33N 55°42' E 012°36'0 0.0
2015-May-21 13:29N 55°42' E 012°36'0 0.0
2015-May-21 12:32N 55°42' E 012°36'0 0.0
2015-May-21 11:32N 55°42' E 012°36'0 0.0
2015-May-21 10:32N 55°42' E 012°36'0 0.0
2015-May-21 09:33N 55°42' E 012°36'0 0.0
2015-May-21 08:32N 55°42' E 012°36'0 0.2
2015-May-21 07:33N 55°42' E 012°36'1111.4
2015-May-21 06:33N 55°53' E 012°40'1414.1
2015-May-21 05:34N 56°07' E 012°32'1514.6
2015-May-21 04:34N 56°20' E 012°22'1615.5
2015-May-21 03:33N 56°35' E 012°13'1716.7
2015-May-21 02:33N 56°51' E 012°03'1716.7
2015-May-21 01:33N 57°07' E 011°56'1616.3
2015-May-21 00:34N 57°22' E 011°42'1716.8
2015-May-20 23:34N 57°36' E 011°27'1716.7
2015-May-20 22:33N 57°52' E 011°14'1716.5
2015-May-20 21:34N 58°07' E 011°04'1616.3
2015-May-20 20:34N 58°23' E 010°55'1615.9
2015-May-20 19:34N 58°38' E 010°49'1616.4
2015-May-20 18:33N 58°55' E 010°43'1716.8
2015-May-20 17:34N 59°11' E 010°38'1716.5
2015-May-20 16:33N 59°28' E 010°33'1614.1
2015-May-20 15:27N 59°43' E 010°34'11 1.4
2015-May-20 07:23N 59°54' E 010°41'1613.7
2015-May-20 06:14N 59°38' E 010°38'1014.4
2015-May-20 05:33N 59°28' E 010°35'1616.0
2015-May-20 04:33N 59°13' E 010°38'1616.2
2015-May-20 03:33N 58°57' E 010°43'1616.0
2015-May-20 02:33N 58°41' E 010°48'1616.1
2015-May-20 01:33N 58°25' E 010°55'1616.0
2015-May-20 00:33N 58°10' E 011°05'1616.1
2015-May-19 23:33N 57°55' E 011°15'1615.7
2015-May-19 22:33N 57°40' E 011°24'1616.2
2015-May-19 21:33N 57°24' E 011°32'1616.4
2015-May-19 20:33N 57°08' E 011°41'1616.2
2015-May-19 19:33N 56°53' E 011°51'1515.3
2015-May-19 18:33N 56°38' E 011°58'1616.0
2015-May-19 17:33N 56°24' E 012°11'1616.3
2015-May-19 16:33N 56°11' E 012°28'1716.8
2015-May-19 15:33N 55°56' E 012°43'1414.0
2015-May-19 14:34N 55°43' E 012°37'1 0.8
2015-May-19 13:33N 55°42' E 012°36'0 0.0
2015-May-19 12:33N 55°42' E 012°36'0 0.0
2015-May-19 11:33N 55°42' E 012°36'0 0.0
2015-May-19 10:33N 55°42' E 012°36'0 0.0
2015-May-19 09:33N 55°42' E 012°36'0 0.0
2015-May-19 08:33N 55°42' E 012°36'0 0.2
2015-May-19 07:34N 55°42' E 012°36'10 9.8
2015-May-19 06:33N 55°52' E 012°41'1413.5
2015-May-19 05:33N 56°05' E 012°36'1515.0
2015-May-19 04:33N 56°18' E 012°23'1515.2
2015-May-19 03:33N 56°33' E 012°17'1615.6
2015-May-19 02:33N 56°48' E 012°11'1615.7
2015-May-19 01:33N 57°03' E 012°01'1616.2
2015-May-19 00:33N 57°17' E 011°48'1716.8
2015-May-18 23:33N 57°32' E 011°32'1716.7
2015-May-18 22:34N 57°47' E 011°19'1717.0
2015-May-18 21:33N 58°03' E 011°09'1616.4
2015-May-18 20:33N 58°19' E 011°00'1716.6
2015-May-18 19:33N 58°35' E 010°51'1716.8
2015-May-18 18:33N 58°51' E 010°44'1817.6
2015-May-18 17:33N 59°09' E 010°39'1818.0
2015-May-18 16:33N 59°27' E 010°33'1915.2
2015-May-18 15:18N 59°46' E 010°33'9 1.1
2015-May-18 07:22N 59°54' E 010°41'2514.0
2015-May-18 05:33N 59°28' E 010°34'1616.0
2015-May-18 04:33N 59°13' E 010°38'1616.2
2015-May-18 03:33N 58°56' E 010°43'1616.4
2015-May-18 02:33N 58°40' E 010°48'1716.6
2015-May-18 01:33N 58°24' E 010°56'1716.8
2015-May-18 00:34N 58°08' E 011°06'1717.1
2015-May-17 23:33N 57°52' E 011°16'1716.5
2015-May-17 22:33N 57°36' E 011°25'1716.6
2015-May-17 21:33N 57°20' E 011°34'1716.6
2015-May-17 20:32N 57°04' E 011°43'1616.2
2015-May-17 19:33N 56°49' E 011°55'1515.5
2015-May-17 18:33N 56°36' E 012°10'1616.1
2015-May-17 17:34N 56°22' E 012°21'1616.0
2015-May-17 16:33N 56°07' E 012°33'1514.7
2015-May-17 15:33N 55°54' E 012°45'1313.0
2015-May-17 14:33N 55°42' E 012°36'0 0.0
2015-May-17 13:31N 55°42' E 012°36'0 0.0
2015-May-17 12:31N 55°42' E 012°36'0 0.0
2015-May-17 11:31N 55°42' E 012°36'0 0.0
2015-May-17 10:31N 55°42' E 012°36'0 0.0
2015-May-17 09:25N 55°42' E 012°36'0 0.0
2015-May-17 08:31N 55°42' E 012°36'0 0.3
2015-May-17 07:33N 55°42' E 012°36'1010.4
2015-May-17 06:34N 55°52' E 012°40'1515.0
2015-May-17 05:34N 56°07' E 012°32'1615.8
2015-May-17 04:33N 56°21' E 012°21'1716.5
2015-May-17 03:33N 56°37' E 012°14'1716.7
2015-May-17 02:33N 56°54' E 012°07'1716.5
2015-May-17 01:33N 57°09' E 011°56'1616.3
2015-May-17 00:33N 57°23' E 011°41'1616.5
2015-May-16 23:33N 57°38' E 011°26'1717.0
2015-May-16 22:33N 57°53' E 011°13'1616.1
2015-May-16 21:33N 58°08' E 011°01'1616.3
2015-May-16 20:33N 58°23' E 010°47'1616.1
2015-May-16 19:33N 58°38' E 010°39'1716.1
2015-May-16 18:32N 58°55' E 010°38'1616.3
2015-May-16 17:33N 59°11' E 010°38'1616.3
2015-May-16 16:33N 59°27' E 010°33'27 2.9
2015-May-16 07:21N 59°54' E 010°41'2514.0
2015-May-16 05:33N 59°29' E 010°34'1616.4
2015-May-16 04:33N 59°13' E 010°38'1616.2
2015-May-16 03:33N 58°56' E 010°37'1616.3
2015-May-16 02:33N 58°40' E 010°33'1716.7
2015-May-16 01:33N 58°24' E 010°43'1716.7
2015-May-16 00:33N 58°08' E 010°52'1717.0
2015-May-15 23:33N 57°52' E 011°01'1716.5
2015-May-15 22:33N 57°37' E 011°13'1616.0
2015-May-15 21:33N 57°24' E 011°31'1616.3
2015-May-15 20:33N 57°09' E 011°41'1716.7
2015-May-15 19:33N 56°53' E 011°51'1616.3
2015-May-15 18:33N 56°39' E 012°07'1615.9
2015-May-15 17:33N 56°25' E 012°19'1616.0
2015-May-15 16:33N 56°10' E 012°30'1616.3
2015-May-15 15:33N 55°56' E 012°44'1413.7
2015-May-15 14:33N 55°42' E 012°37'1 0.6
2015-May-15 13:31N 55°42' E 012°36'0 0.0
2015-May-15 12:31N 55°42' E 012°36'0 0.0
2015-May-15 11:31N 55°42' E 012°36'0 0.0
2015-May-15 10:25N 55°42' E 012°36'0 0.0
2015-May-15 09:31N 55°42' E 012°36'0 0.0
2015-May-15 08:31N 55°42' E 012°36'0 0.4
2015-May-15 07:33N 55°42' E 012°36'1211.8
2015-May-15 06:33N 55°54' E 012°39'1414.0
2015-May-15 05:33N 56°07' E 012°31'1515.1
2015-May-15 04:33N 56°21' E 012°22'1615.7
2015-May-15 03:33N 56°37' E 012°16'1616.5
2015-May-15 02:33N 56°53' E 012°09'1616.0
2015-May-15 01:33N 57°07' E 011°57'1616.3
2015-May-15 00:33N 57°21' E 011°41'1615.9
2015-May-14 23:33N 57°35' E 011°28'1616.3
2015-May-14 22:33N 57°50' E 011°16'1616.5
2015-May-14 21:33N 58°06' E 011°07'1515.5
2015-May-14 20:33N 58°21' E 010°59'1615.6
2015-May-14 19:33N 58°36' E 010°51'1616.2
2015-May-14 18:33N 58°52' E 010°44'1716.9
2015-May-14 17:33N 59°08' E 010°39'1717.3
2015-May-14 16:33N 59°25' E 010°33'29 3.1
2015-May-14 07:25N 59°54' E 010°41'2613.8
2015-May-14 05:33N 59°28' E 010°35'1615.7
2015-May-14 04:33N 59°13' E 010°39'1616.3
2015-May-14 03:33N 58°57' E 010°43'1616.0
2015-May-14 02:32N 58°40' E 010°46'1616.5
2015-May-14 01:33N 58°25' E 010°55'1717.1
2015-May-14 00:33N 58°09' E 011°05'1717.2
2015-May-13 23:33N 57°52' E 011°15'1716.7
2015-May-13 22:33N 57°36' E 011°25'1716.6
2015-May-13 21:33N 57°21' E 011°34'1717.0
2015-May-13 20:33N 57°04' E 011°44'1716.6
2015-May-13 19:33N 56°49' E 011°55'1616.1
2015-May-13 18:33N 56°35' E 012°11'2416.2
2015-May-13 17:03N 56°13' E 012°28'815.4
2015-May-13 16:33N 56°06' E 012°35'1514.6
2015-May-13 15:33N 55°53' E 012°44'1211.7
2015-May-13 14:34N 55°42' E 012°36'0 0.0
2015-May-13 13:33N 55°42' E 012°36'0 0.0
2015-May-13 12:33N 55°42' E 012°36'0 0.0
2015-May-13 11:33N 55°42' E 012°36'0 0.0
2015-May-13 10:33N 55°42' E 012°36'0 0.0
2015-May-13 09:33N 55°42' E 012°36'0 0.0
2015-May-13 08:33N 55°42' E 012°36'0 0.1
2015-May-13 07:34N 55°42' E 012°36'1110.9
2015-May-13 06:33N 55°53' E 012°40'1414.4
2015-May-13 05:33N 56°07' E 012°32'1616.3
2015-May-13 04:33N 56°22' E 012°21'  

Dump ship's entire track history